Time;durP1;ratioP1;P1;durP2;ratioP2;P2;SDS_P1;SDS_P2;PMS_P1;PMS_P2;Temp;Humidity;BMP_temperature;BMP_pressure;BME280_temperature;BME280_humidity;BME280_pressure;Samples;Min_cycle;Max_cycle;Signal;HPM_P1;HPM_P2
2023/11/13 00:00:35;;;;;;;10.75;6.03;;;;;;;6.83;93.41;99418.67;1740284;82;21059;-63
2023/11/13 00:03:03;;;;;;;10.25;6.05;;;;;;;6.84;93.20;99426.32;1740018;82;21007;-63
2023/11/13 00:05:33;;;;;;;10.63;6.15;;;;;;;6.81;92.98;99426.20;1740056;82;21051;-62
2023/11/13 00:08:05;;;;;;;12.00;7.10;;;;;;;6.79;92.68;99431.52;1740007;82;21444;-64
2023/11/13 00:10:34;;;;;;;9.55;5.58;;;;;;;6.78;92.75;99436.13;1740038;82;21000;-63
2023/11/13 00:13:02;;;;;;;11.80;7.03;;;;;;;6.77;92.51;99435.80;1740059;82;21452;-63
2023/11/13 00:15:32;;;;;;;12.15;6.10;;;;;;;6.75;92.22;99435.67;1740221;82;20988;-63
2023/11/13 00:18:02;;;;;;;10.93;6.35;;;;;;;6.71;92.25;99428.42;1740057;82;21063;-66
2023/11/13 00:20:31;;;;;;;9.48;5.20;;;;;;;6.71;92.27;99440.67;1740237;82;21016;-63
2023/11/13 00:22:59;;;;;;;10.25;5.97;;;;;;;6.67;92.00;99443.45;1740093;82;21087;-63
2023/11/13 00:25:30;;;;;;;9.25;5.65;;;;;;;6.65;91.73;99447.73;1740366;82;21012;-62
2023/11/13 00:27:58;;;;;;;10.70;6.22;;;;;;;6.62;91.60;99453.58;1739987;82;21071;-65
2023/11/13 00:30:27;;;;;;;9.78;5.20;;;;;;;6.61;91.83;99457.85;1740238;82;21032;-65
2023/11/13 00:32:56;;;;;;;9.30;5.45;;;;;;;6.61;91.92;99457.85;1739998;82;21455;-63
2023/11/13 00:35:25;;;;;;;9.03;5.10;;;;;;;6.59;92.00;99462.13;1740835;82;21016;-64
2023/11/13 00:37:57;;;;;;;11.03;5.75;;;;;;;6.57;91.82;99462.84;1706974;84;21044;-63
2023/11/13 00:40:24;;;;;;;10.23;5.35;;;;;;;6.59;92.02;99472.17;1678710;85;21055;-62
2023/11/13 00:42:53;;;;;;;9.20;4.75;;;;;;;6.58;92.04;99461.80;1742372;82;21043;-63
2023/11/13 00:45:22;;;;;;;8.60;5.20;;;;;;;6.59;92.19;99477.09;1721641;82;21486;-63
2023/11/13 00:47:51;;;;;;;7.95;5.15;;;;;;;6.61;92.30;99472.82;1706975;84;21052;-63
2023/11/13 00:50:21;;;;;;;9.10;5.42;;;;;;;6.61;91.93;99472.30;1678428;85;21059;-63
2023/11/13 00:52:50;;;;;;;9.33;5.53;;;;;;;6.60;91.90;99469.77;1742402;82;21012;-63
2023/11/13 00:55:18;;;;;;;11.68;4.83;;;;;;;6.60;91.75;99477.42;1742308;82;20996;-64
2023/11/13 00:57:47;;;;;;;8.30;5.00;;;;;;;6.59;91.52;99486.62;1742590;82;21094;-62
2023/11/13 01:00:17;;;;;;;9.08;5.05;;;;;;;6.58;91.08;99478.66;1706809;84;21024;-63
2023/11/13 01:02:46;;;;;;;10.72;4.58;;;;;;;6.55;91.17;99486.69;1678699;85;21032;-62
2023/11/13 01:05:15;;;;;;;8.60;4.78;;;;;;;6.56;91.27;99495.70;1721894;82;21111;-63
2023/11/13 01:07:43;;;;;;;7.95;4.40;;;;;;;6.56;91.37;99482.09;1706806;84;21032;-63
2023/11/13 01:10:12;;;;;;;7.97;4.60;;;;;;;6.57;91.29;99493.30;1678579;85;21044;-64
2023/11/13 01:12:41;;;;;;;7.92;4.92;;;;;;;6.57;91.37;99501.46;1742375;82;21043;-64
2023/11/13 01:15:12;;;;;;;10.48;5.78;;;;;;;6.56;91.18;99503.34;1706814;84;21550;-62
2023/11/13 01:17:41;;;;;;;8.43;5.58;;;;;;;6.55;91.00;99504.38;1678629;85;21036;-63
2023/11/13 01:20:11;;;;;;;9.93;5.20;;;;;;;6.52;90.76;99507.48;1742320;82;21048;-63
2023/11/13 01:22:41;;;;;;;11.95;6.05;;;;;;;6.52;91.06;99502.56;1706796;84;21116;-63
2023/11/13 01:25:10;;;;;;;10.13;5.72;;;;;;;6.53;91.31;99521.42;1742535;82;21051;-64
2023/11/13 01:27:41;;;;;;;10.53;6.28;;;;;;;6.54;91.42;99513.58;1742622;82;21075;-64
2023/11/13 01:30:11;;;;;;;8.90;4.97;;;;;;;6.53;91.49;99513.25;1742504;82;21031;-64
2023/11/13 01:32:40;;;;;;;10.53;5.40;;;;;;;6.54;91.47;99524.46;1742532;82;20996;-63
2023/11/13 01:35:11;;;;;;;11.10;5.90;;;;;;;6.56;91.21;99521.03;1706837;84;21471;-62
2023/11/13 01:37:40;;;;;;;10.58;5.75;;;;;;;6.54;91.23;99524.46;1678632;85;21463;-63
2023/11/13 01:40:10;;;;;;;12.15;6.00;;;;;;;6.55;91.27;99531.59;1742552;82;21078;-62
2023/11/13 01:42:38;;;;;;;12.13;6.28;;;;;;;6.55;91.37;99537.03;1720739;82;21526;-63
2023/11/13 01:45:08;;;;;;;10.65;5.60;;;;;;;6.54;91.13;99536.71;1742468;82;21466;-62
2023/11/13 01:47:37;;;;;;;11.08;6.15;;;;;;;6.53;91.27;99544.55;1742564;82;21035;-63
2023/11/13 01:50:06;;;;;;;11.40;5.95;;;;;;;6.52;90.96;99531.98;1742316;82;21020;-62
2023/11/13 01:52:35;;;;;;;12.00;6.62;;;;;;;6.52;90.91;99542.02;1706858;84;21028;-63
2023/11/13 01:55:04;;;;;;;14.43;7.00;;;;;;;6.53;91.06;99543.19;1659040;85;21020;-63
2023/11/13 01:57:33;;;;;;;12.60;6.87;;;;;;;6.53;91.09;99540.47;1742407;82;21004;-63
2023/11/13 02:00:05;;;;;;;15.05;7.00;;;;;;;6.52;91.23;99546.95;1742603;82;21031;-62
2023/11/13 02:02:34;;;;;;;14.53;7.22;;;;;;;6.52;91.15;99551.55;1741575;82;21037;-63
2023/11/13 02:05:04;;;;;;;15.53;7.58;;;;;;;6.51;91.33;99550.70;1706905;84;21048;-63
2023/11/13 02:07:33;;;;;;;12.30;7.08;;;;;;;6.53;91.40;99560.88;1742487;82;21000;-62
2023/11/13 02:10:04;;;;;;;11.63;7.00;;;;;;;6.54;91.35;99561.20;1721966;82;21055;-65
2023/11/13 02:12:34;;;;;;;14.33;8.20;;;;;;;6.53;91.37;99551.35;1742412;82;21004;-63
2023/11/13 02:15:04;;;;;;;16.05;8.55;;;;;;;6.53;91.35;99562.23;1742643;82;21037;-63
2023/11/13 02:17:33;;;;;;;16.60;8.63;;;;;;;6.53;91.49;99561.39;1706993;84;21052;-65
2023/11/13 02:20:02;;;;;;;13.05;7.50;;;;;;;6.51;91.41;99567.03;1742422;82;21024;-68
2023/11/13 02:22:31;;;;;;;14.75;8.25;;;;;;;6.53;91.71;99574.48;1706801;84;21452;-65
2023/11/13 02:25:00;;;;;;;15.18;8.00;;;;;;;6.54;91.72;99576.69;1678524;85;21044;-63
2023/11/13 02:27:29;;;;;;;13.60;7.80;;;;;;;6.54;91.77;99578.05;1742623;82;21032;-63
2023/11/13 02:29:58;;;;;;;15.20;8.40;;;;;;;6.53;91.65;99578.56;1706807;84;21099;-62
2023/11/13 02:32:27;;;;;;;16.02;8.78;;;;;;;6.55;91.93;99587.90;1678515;85;21052;-63
2023/11/13 02:34:56;;;;;;;20.05;9.53;;;;;;;6.55;91.82;99587.90;1742437;82;21115;-65
2023/11/13 02:37:24;;;;;;;22.98;9.13;;;;;;;6.54;91.92;99585.69;1740283;82;21091;-64
2023/11/13 02:39:52;;;;;;;14.30;7.80;;;;;;;6.55;92.07;99596.91;1740239;82;21012;-63
2023/11/13 02:42:22;;;;;;;17.67;8.85;;;;;;;6.54;91.94;99599.82;1740169;82;21095;-62
2023/11/13 02:44:50;;;;;;;18.98;9.60;;;;;;;6.54;92.03;99590.30;1740302;82;21060;-63
2023/11/13 02:47:20;;;;;;;16.55;9.00;;;;;;;6.54;92.11;99608.83;1740368;82;21035;-64
2023/11/13 02:49:49;;;;;;;17.65;9.20;;;;;;;6.56;92.03;99602.67;1740033;82;21071;-65
2023/11/13 02:52:19;;;;;;;17.62;8.93;;;;;;;6.54;91.91;99593.86;1740168;82;21043;-64
2023/11/13 02:54:48;;;;;;;18.87;11.20;;;;;;;6.54;92.04;99592.50;1740272;82;21462;-64
2023/11/13 02:57:17;;;;;;;18.98;10.15;;;;;;;6.57;92.37;99600.80;1740103;82;21060;-63
2023/11/13 02:59:46;;;;;;;20.57;10.15;;;;;;;6.57;92.36;99600.28;1740075;82;21016;-63
2023/11/13 03:02:15;;;;;;;17.02;9.20;;;;;;;6.57;92.31;99596.20;1740276;82;21036;-63
2023/11/13 03:04:44;;;;;;;18.87;9.78;;;;;;;6.54;91.77;99603.90;1740092;82;21008;-63
2023/11/13 03:07:12;;;;;;;19.32;9.95;;;;;;;6.52;91.75;99599.16;1740053;82;20992;-63
2023/11/13 03:09:41;;;;;;;18.32;10.05;;;;;;;6.51;91.96;99605.64;1740224;82;21020;-63
2023/11/13 03:12:10;;;;;;;20.05;10.23;;;;;;;6.51;91.91;99610.57;1739976;82;21521;-64
2023/11/13 03:14:39;;;;;;;18.92;9.45;;;;;;;6.52;92.00;99610.89;1739977;82;21468;-64
2023/11/13 03:17:08;;;;;;;20.48;10.45;;;;;;;6.52;91.99;99619.06;1740033;82;20992;-64
2023/11/13 03:19:38;;;;;;;21.75;10.05;;;;;;;6.52;92.21;99625.86;1740220;82;21048;-64
2023/11/13 03:22:13;;;;;;;20.35;9.73;;;;;;;6.52;92.24;99627.74;1740037;82;21019;-63
2023/11/13 03:24:44;;;;;;;20.55;10.18;;;;;;;6.51;92.43;99626.90;1740040;82;21440;-64
2023/11/13 03:27:12;;;;;;;19.50;9.70;;;;;;;6.52;92.26;99629.95;1740190;82;21501;-63
2023/11/13 03:29:41;;;;;;;22.35;11.35;;;;;;;6.53;92.50;99625.34;1740292;82;21581;-63
2023/11/13 03:32:09;;;;;;;21.60;10.70;;;;;;;6.54;92.56;99633.84;1740113;82;21016;-64
2023/11/13 03:34:40;;;;;;;19.02;10.05;;;;;;;6.56;92.58;99634.48;1740093;82;21044;-64
2023/11/13 03:37:10;;;;;;;19.75;10.30;;;;;;;6.57;92.65;99638.90;1730800;82;21084;-63
2023/11/13 03:39:39;;;;;;;17.95;10.00;;;;;;;6.55;92.24;99639.09;1725457;83;21065;-64
2023/11/13 03:42:09;;;;;;;20.82;10.32;;;;;;;6.56;92.51;99640.77;1725553;83;20990;-63
2023/11/13 03:44:39;;;;;;;20.40;9.83;;;;;;;6.57;92.34;99647.91;1725489;83;21036;-64
2023/11/13 03:47:08;;;;;;;21.40;10.53;;;;;;;6.58;92.21;99646.03;1725466;83;21012;-64
2023/11/13 03:49:37;;;;;;;18.57;10.45;;;;;;;6.57;92.34;99642.98;1725577;83;21052;-63
2023/11/13 03:52:06;;;;;;;22.55;9.78;;;;;;;6.57;92.41;99649.27;1725387;83;21044;-63
2023/11/13 03:54:35;;;;;;;17.85;9.13;;;;;;;6.58;92.61;99649.59;1725676;83;21028;-64
2023/11/13 03:57:03;;;;;;;14.75;8.53;;;;;;;6.60;92.75;99655.69;1725464;83;20985;-64
2023/11/13 03:59:32;;;;;;;16.87;8.80;;;;;;;6.60;92.81;99662.50;1725541;83;21052;-62
2023/11/13 04:02:00;;;;;;;14.87;7.97;;;;;;;6.62;92.98;99665.87;1725658;83;21036;-63
2023/11/13 04:04:29;;;;;;;19.02;9.40;;;;;;;6.61;92.78;99666.06;1725662;83;21041;-64
2023/11/13 04:06:59;;;;;;;20.35;10.28;;;;;;;6.57;92.65;99670.20;1725680;83;21083;-63
2023/11/13 04:09:28;;;;;;;18.87;9.98;;;;;;;6.54;92.73;99674.66;1725664;83;21000;-62
2023/11/13 04:11:57;;;;;;;18.07;10.28;;;;;;;6.53;93.00;99686.06;1725421;83;21056;-64
2023/11/13 04:14:25;;;;;;;18.92;9.48;;;;;;;6.53;92.98;99682.50;1725516;83;21017;-63
2023/11/13 04:16:54;;;;;;;16.02;8.58;;;;;;;6.51;93.06;99687.28;1725622;83;21447;-63
2023/11/13 04:19:23;;;;;;;17.05;9.00;;;;;;;6.50;93.12;99690.52;1707325;82;21075;-64
2023/11/13 04:21:52;;;;;;;17.40;9.40;;;;;;;6.48;93.18;99688.47;1725412;83;21028;-64
2023/11/13 04:24:21;;;;;;;17.40;9.63;;;;;;;6.50;93.11;99703.25;1725411;83;21009;-63
2023/11/13 04:26:49;;;;;;;21.02;9.60;;;;;;;6.45;92.91;99694.30;1725396;83;21020;-63
2023/11/13 04:29:18;;;;;;;17.42;9.68;;;;;;;6.41;92.97;99701.14;1725392;83;21040;-64
2023/11/13 04:31:47;;;;;;;18.23;10.05;;;;;;;6.41;93.17;99705.23;1725523;83;21049;-63
2023/11/13 04:34:16;;;;;;;20.37;10.23;;;;;;;6.40;92.97;99710.34;1725357;83;21071;-64
2023/11/13 04:36:44;;;;;;;16.77;9.55;;;;;;;6.38;92.80;99713.77;1731256;82;21075;-65
2023/11/13 04:39:15;;;;;;;24.98;10.25;;;;;;;6.36;92.85;99714.47;1721807;82;21106;-64
2023/11/13 04:41:43;;;;;;;19.20;9.63;;;;;;;6.31;92.76;99713.67;1742432;82;21059;-66
2023/11/13 04:44:12;;;;;;;17.62;9.45;;;;;;;6.30;92.75;99719.30;1706608;83;21052;-64
2023/11/13 04:46:41;;;;;;;14.73;8.50;;;;;;;6.28;92.80;99728.16;1678627;85;21059;-65
2023/11/13 04:49:11;;;;;;;20.35;10.05;;;;;;;6.26;92.81;99739.23;1742523;82;20995;-64
2023/11/13 04:51:42;;;;;;;15.38;9.00;;;;;;;6.22;92.72;99736.55;1742362;82;21071;-64
2023/11/13 04:54:11;;;;;;;20.62;11.63;;;;;;;6.21;92.84;99747.10;1707181;84;20989;-64
2023/11/13 04:56:40;;;;;;;16.82;10.23;;;;;;;6.20;93.01;99748.65;1742616;82;21051;-62
2023/11/13 04:59:13;;;;;;;21.05;11.48;;;;;;;6.23;93.04;99753.72;1742389;82;21012;-64
2023/11/13 05:01:42;;;;;;;18.80;10.40;;;;;;;6.21;93.19;99758.50;1742136;82;21012;-64
2023/11/13 05:04:10;;;;;;;15.85;9.10;;;;;;;6.22;93.27;99759.67;1742341;82;21000;-64
2023/11/13 05:06:39;;;;;;;17.50;9.08;;;;;;;6.21;93.15;99765.30;1742456;82;21427;-64
2023/11/13 05:09:08;;;;;;;13.10;7.97;;;;;;;6.18;92.79;99767.03;1686979;84;21064;-64
2023/11/13 05:11:37;;;;;;;16.75;9.35;;;;;;;6.19;92.93;99772.80;1678398;85;21051;-63
2023/11/13 05:14:05;;;;;;;17.20;9.65;;;;;;;6.18;93.00;99772.47;1742509;82;21043;-63
2023/11/13 05:16:34;;;;;;;16.15;9.35;;;;;;;6.21;93.06;99774.81;1706996;84;21076;-64
2023/11/13 05:19:03;;;;;;;16.82;8.78;;;;;;;6.21;93.02;99774.30;1742692;82;21043;-64
2023/11/13 05:21:32;;;;;;;18.50;8.73;;;;;;;6.21;93.03;99779.74;1742625;82;21008;-63
2023/11/13 05:24:00;;;;;;;17.17;9.13;;;;;;;6.21;92.77;99780.26;1706766;84;21246;-68
2023/11/13 05:26:29;;;;;;;15.40;8.75;;;;;;;6.21;92.80;99777.54;1678442;85;21059;-63
2023/11/13 05:28:58;;;;;;;20.10;9.73;;;;;;;6.21;92.68;99781.10;1742571;82;21055;-63
2023/11/13 05:31:27;;;;;;;17.73;9.23;;;;;;;6.21;92.55;99781.62;1706757;84;21068;-63
2023/11/13 05:33:56;;;;;;;18.57;9.95;;;;;;;6.19;92.35;99789.12;1742356;82;21639;-64
2023/11/13 05:36:25;;;;;;;15.20;8.65;;;;;;;6.18;92.41;99795.59;1742213;82;21051;-63
2023/11/13 05:38:55;;;;;;;17.75;10.10;;;;;;;6.18;92.30;99811.91;1740118;82;21028;-64
2023/11/13 05:41:25;;;;;;;18.67;9.35;;;;;;;6.18;92.26;99799.67;1719682;82;21048;-62
2023/11/13 05:43:55;;;;;;;15.80;9.08;;;;;;;6.17;92.11;99808.86;1739941;82;21032;-62
2023/11/13 05:46:24;;;;;;;16.30;9.13;;;;;;;6.17;92.11;99808.86;1719627;82;21036;-64
2023/11/13 05:48:53;;;;;;;13.00;8.18;;;;;;;6.14;91.83;99819.59;1739970;82;21080;-64
2023/11/13 05:51:21;;;;;;;16.32;8.15;;;;;;;6.12;91.98;99814.00;1740156;82;21055;-63
2023/11/13 05:53:50;;;;;;;15.75;8.78;;;;;;;6.10;91.90;99818.78;1719351;82;21028;-64
2023/11/13 05:56:19;;;;;;;20.30;9.93;;;;;;;6.10;91.95;99819.63;1740128;82;21039;-63
2023/11/13 05:58:49;;;;;;;16.95;9.48;;;;;;;6.11;92.00;99828.63;1740136;82;21004;-64
2023/11/13 06:01:18;;;;;;;16.55;8.85;;;;;;;6.11;91.93;99829.98;1740206;82;21079;-63
2023/11/13 06:03:47;;;;;;;18.80;8.85;;;;;;;6.11;92.00;99835.43;1740039;82;21048;-64
2023/11/13 06:06:16;;;;;;;16.93;8.43;;;;;;;6.11;91.53;99837.63;1740034;82;21107;-64
2023/11/13 06:08:45;;;;;;;14.35;8.30;;;;;;;6.10;91.57;99840.02;1739904;82;21499;-64
2023/11/13 06:11:14;;;;;;;16.00;9.38;;;;;;;6.09;91.46;99841.56;1740011;82;21091;-64
2023/11/13 06:13:44;;;;;;;18.82;10.00;;;;;;;6.09;91.55;99845.12;1740247;82;21056;-62
2023/11/13 06:16:14;;;;;;;14.95;8.65;;;;;;;6.11;91.68;99847.67;1739937;82;21529;-64
2023/11/13 06:18:47;;;;;;;18.30;9.40;;;;;;;6.12;91.69;99844.77;1739925;82;20996;-65
2023/11/13 06:21:18;;;;;;;14.75;8.20;;;;;;;6.17;91.78;99851.02;1740064;82;21019;-64
2023/11/13 06:23:47;;;;;;;15.93;8.68;;;;;;;6.17;91.48;99851.02;1739965;82;21040;-64
2023/11/13 06:26:17;;;;;;;18.85;8.88;;;;;;;6.16;91.13;99858.84;1740004;82;21048;-63
2023/11/13 06:28:45;;;;;;;16.87;9.18;;;;;;;6.13;91.08;99857.84;1740119;82;21463;-62
2023/11/13 06:31:21;;;;;;;21.33;10.10;;;;;;;6.13;91.13;99863.29;1719042;82;21051;-65
2023/11/13 06:33:52;;;;;;;15.38;9.08;;;;;;;6.14;91.22;99862.26;1739821;82;21444;-64
2023/11/13 06:36:22;;;;;;;14.90;8.35;;;;;;;6.16;91.41;99868.36;1739899;82;21031;-65
2023/11/13 06:38:52;;;;;;;14.65;8.38;;;;;;;6.18;91.35;99867.16;1725919;82;21068;-65
2023/11/13 06:41:21;;;;;;;16.02;8.98;;;;;;;6.19;91.03;99872.92;1725671;83;21057;-64
2023/11/13 06:43:50;;;;;;;16.30;9.60;;;;;;;6.21;91.07;99876.31;1725422;83;20997;-64
2023/11/13 06:46:21;;;;;;;14.75;8.50;;;;;;;6.19;90.58;99870.20;1725561;83;21146;-65
2023/11/13 06:48:49;;;;;;;16.10;8.03;;;;;;;6.17;90.38;99865.98;1725541;83;21056;-64
2023/11/13 06:51:19;;;;;;;15.18;8.13;;;;;;;6.18;90.45;99871.75;1725484;83;21084;-66
2023/11/13 06:53:48;;;;;;;16.42;8.38;;;;;;;6.20;90.70;99870.53;1725441;83;20996;-65
2023/11/13 06:56:17;;;;;;;15.93;8.10;;;;;;;6.24;90.51;99871.86;1707372;83;21072;-64
2023/11/13 06:58:45;;;;;;;14.40;8.00;;;;;;;6.27;90.51;99879.66;1725500;83;20989;-64
2023/11/13 07:01:15;;;;;;;15.32;8.45;;;;;;;6.31;90.26;99877.42;1707478;83;21056;-64
2023/11/13 07:03:44;;;;;;;15.98;8.33;;;;;;;6.33;90.27;99882.16;1707286;83;21175;-66
2023/11/13 07:06:13;;;;;;;14.25;7.55;;;;;;;6.38;90.15;99885.70;1725381;83;21028;-65
2023/11/13 07:08:41;;;;;;;16.67;8.83;;;;;;;6.42;89.73;99881.58;1725594;83;21017;-65
2023/11/13 07:11:14;;;;;;;13.43;7.92;;;;;;;6.41;88.97;99887.53;1725539;83;21021;-65
2023/11/13 07:13:44;;;;;;;14.75;7.85;;;;;;;6.43;89.15;99893.64;1725583;83;21032;-63
2023/11/13 07:16:14;;;;;;;16.00;7.97;;;;;;;6.49;89.21;99892.91;1707035;83;21044;-66
2023/11/13 07:18:43;;;;;;;12.55;7.67;;;;;;;6.56;88.87;99892.53;1707269;83;21084;-65
2023/11/13 07:21:12;;;;;;;14.93;7.83;;;;;;;6.61;88.72;99887.37;1725411;83;21060;-66
2023/11/13 07:23:40;;;;;;;12.90;7.95;;;;;;;6.67;88.69;99894.80;1725389;83;21083;-65
2023/11/13 07:26:09;;;;;;;12.90;7.40;;;;;;;6.76;88.69;99893.36;1725459;83;21060;-65
2023/11/13 07:28:41;;;;;;;11.78;7.72;;;;;;;6.84;88.68;99890.55;1725592;83;21041;-65
2023/11/13 07:31:10;;;;;;;15.72;8.28;;;;;;;6.91;88.27;99886.05;1725603;83;21076;-65
2023/11/13 07:33:40;;;;;;;14.75;7.50;;;;;;;6.97;88.07;99894.84;1725649;83;21097;-65
2023/11/13 07:36:11;;;;;;;13.05;8.10;;;;;;;7.03;87.78;99898.69;1725380;83;21060;-63
2023/11/13 07:38:43;;;;;;;14.00;7.53;;;;;;;7.06;87.44;99900.52;1737974;82;21052;-66
2023/11/13 07:41:12;;;;;;;13.93;7.33;;;;;;;7.08;86.68;99897.61;1706539;84;21067;-66
2023/11/13 07:43:42;;;;;;;12.47;7.17;;;;;;;7.09;86.76;99902.87;1678554;85;21084;-65
2023/11/13 07:46:17;;;;;;;13.38;7.53;;;;;;;7.12;86.57;99897.05;1721837;82;21487;-65
2023/11/13 07:48:42;;;;;;;12.28;7.28;;;;;;;7.16;86.58;99899.75;1741809;82;21495;-64
2023/11/13 07:51:11;;;;;;;15.28;8.38;;;;;;;7.20;86.21;99901.59;1742297;82;21039;-65
2023/11/13 07:53:42;;;;;;;11.25;6.55;;;;;;;7.25;86.26;99906.80;1706774;83;21064;-65
2023/11/13 07:56:11;;;;;;;12.73;6.72;;;;;;;7.31;85.67;99906.05;1678098;85;21088;-65
2023/11/13 07:58:40;;;;;;;12.03;7.20;;;;;;;7.38;85.58;99901.20;1742403;82;21032;-65
2023/11/13 08:01:10;;;;;;;11.75;7.10;;;;;;;7.47;85.69;99906.88;1742222;82;21099;-65
2023/11/13 08:03:40;;;;;;;13.00;7.72;;;;;;;7.58;85.78;99907.23;1721601;82;21079;-64
2023/11/13 08:06:11;;;;;;;11.22;7.25;;;;;;;7.70;85.19;99902.14;1706469;84;21088;-66
2023/11/13 08:08:39;;;;;;;11.85;7.28;;;;;;;7.80;84.71;99901.34;1678484;85;21032;-65
2023/11/13 08:11:08;;;;;;;11.78;7.00;;;;;;;7.87;83.83;99902.27;1721540;82;21443;-64
2023/11/13 08:13:36;;;;;;;15.40;7.30;;;;;;;7.93;83.08;99905.59;1742232;82;21012;-65
2023/11/13 08:16:08;;;;;;;13.68;9.03;;;;;;;7.97;82.97;99903.84;1742262;82;21027;-64
2023/11/13 08:18:39;;;;;;;17.90;8.58;;;;;;;8.02;82.89;99910.41;1706777;84;21068;-65
2023/11/13 08:21:10;;;;;;;12.98;7.72;;;;;;;8.11;83.21;99901.58;1678488;85;21223;-65
2023/11/13 08:23:39;;;;;;;10.82;7.10;;;;;;;8.20;82.85;99905.86;1742341;82;21167;-65
2023/11/13 08:26:08;;;;;;;13.75;7.40;;;;;;;8.28;82.64;99900.27;1706821;84;21468;-65
2023/11/13 08:28:38;;;;;;;10.65;6.47;;;;;;;8.32;80.71;99901.58;1742501;82;21020;-66
2023/11/13 08:31:08;;;;;;;12.95;8.53;;;;;;;8.25;79.94;99893.33;1742309;82;21035;-66
2023/11/13 08:33:41;;;;;;;12.58;7.12;;;;;;;8.21;79.84;99904.83;1742387;82;21068;-65
2023/11/13 08:36:11;;;;;;;13.20;6.85;;;;;;;8.21;79.72;99894.75;1721973;82;21174;-65
2023/11/13 08:38:40;;;;;;;12.30;7.47;;;;;;;8.21;80.00;99899.37;1705391;84;21111;-66
2023/11/13 08:41:13;;;;;;;9.80;6.67;;;;;;;8.22;79.40;99904.63;1676608;85;21108;-65
2023/11/13 08:43:40;;;;;;;13.18;7.40;;;;;;;8.23;79.18;99903.59;1740163;82;20984;-65
2023/11/13 08:46:11;;;;;;;10.93;7.20;;;;;;;8.26;79.27;99899.63;1719090;82;21036;-66
2023/11/13 08:48:41;;;;;;;11.57;8.05;;;;;;;8.30;78.99;99902.29;1739963;82;21084;-65
2023/11/13 08:51:11;;;;;;;13.65;7.35;;;;;;;8.35;78.70;99904.47;1739937;82;21492;-66
2023/11/13 08:53:42;;;;;;;13.25;7.72;;;;;;;8.38;78.70;99911.75;1739824;82;21016;-66
2023/11/13 08:56:15;;;;;;;15.58;9.10;;;;;;;8.41;78.34;99905.89;1739363;81;21929;-65
2023/11/13 08:58:43;;;;;;;12.37;7.17;;;;;;;8.41;77.12;99904.53;1753352;81;21115;-65
2023/11/13 09:01:15;;;;;;;11.93;7.80;;;;;;;8.38;77.32;99891.79;1676619;85;21074;-63
2023/11/13 09:03:43;;;;;;;11.60;7.17;;;;;;;8.38;78.69;99887.70;1739580;82;21049;-67
2023/11/13 09:06:13;;;;;;;11.83;7.37;;;;;;;8.49;80.02;99893.50;1747384;81;21064;-69
2023/11/13 09:08:43;;;;;;;9.93;7.10;;;;;;;8.58;79.89;99896.42;1739671;82;21051;-70
2023/11/13 09:11:17;;;;;;;10.15;7.30;;;;;;;8.67;78.90;99894.39;1739876;82;21546;-70
2023/11/13 09:13:46;;;;;;;12.95;7.75;;;;;;;8.68;78.00;99895.23;1739723;82;21091;-69
2023/11/13 09:16:19;;;;;;;11.97;7.20;;;;;;;8.74;79.25;99893.07;1719182;82;21075;-69
2023/11/13 09:18:53;;;;;;;13.08;8.60;;;;;;;8.83;78.98;99889.15;1739678;82;21055;-72
2023/11/13 09:21:23;;;;;;;12.60;7.15;;;;;;;8.90;79.08;99899.60;1739604;82;21954;-70
2023/11/13 09:23:51;;;;;;;10.28;6.85;;;;;;;9.02;78.98;99898.53;1739794;82;21075;-71
2023/11/13 09:26:20;;;;;;;12.68;7.03;;;;;;;9.11;78.90;99898.72;1739981;82;21028;-69
2023/11/13 09:28:48;;;;;;;14.10;7.00;;;;;;;9.16;77.39;99891.61;1719294;82;21079;-71
2023/11/13 09:31:17;;;;;;;13.85;7.40;;;;;;;9.18;76.72;99891.41;1739895;82;21075;-70
2023/11/13 09:33:46;;;;;;;12.28;7.10;;;;;;;9.18;75.93;99892.77;1739652;82;21090;-71
2023/11/13 09:36:17;;;;;;;9.80;6.70;;;;;;;9.16;75.54;99891.61;1739783;82;21160;-67
2023/11/13 09:38:49;;;;;;;10.50;7.40;;;;;;;9.15;75.42;99894.55;1740895;82;21012;-66
2023/11/13 09:41:17;;;;;;;12.73;6.85;;;;;;;9.13;75.30;99894.74;1722033;82;21064;-67
2023/11/13 09:43:45;;;;;;;13.78;7.80;;;;;;;9.11;74.96;99888.64;1742105;82;21075;-66
2023/11/13 09:46:16;;;;;;;13.00;8.03;;;;;;;9.05;74.66;99890.77;1742192;82;21036;-66
2023/11/13 09:48:50;;;;;;;17.98;7.72;;;;;;;9.02;74.94;99889.80;1742547;82;21063;-67
2023/11/13 09:51:20;;;;;;;13.00;7.47;;;;;;;9.03;75.38;99878.35;1742339;82;21039;-66
2023/11/13 09:53:51;;;;;;;12.53;7.85;;;;;;;9.05;75.79;99876.27;1720833;82;21438;-66
2023/11/13 09:56:20;;;;;;;10.35;7.12;;;;;;;9.07;75.51;99877.75;1742088;82;21044;-66
2023/11/13 09:58:49;;;;;;;10.43;6.87;;;;;;;9.08;74.74;99869.03;1742248;82;21063;-69
2023/11/13 10:01:20;;;;;;;13.15;7.87;;;;;;;9.06;74.46;99871.97;1742091;82;21464;-65
2023/11/13 10:03:48;;;;;;;12.30;7.90;;;;;;;9.08;74.34;99874.50;1742838;82;21020;-67
2023/11/13 10:06:17;;;;;;;14.25;7.37;;;;;;;9.10;73.69;99880.61;1724932;82;21039;-66
2023/11/13 10:08:47;;;;;;;10.43;6.92;;;;;;;9.08;72.13;99869.03;1747690;82;21000;-67
2023/11/13 10:11:16;;;;;;;12.58;6.58;;;;;;;9.09;72.71;99871.56;1685718;85;21531;-66
2023/11/13 10:13:45;;;;;;;10.90;6.85;;;;;;;9.13;72.29;99874.25;1747880;82;21079;-65
2023/11/13 10:16:19;;;;;;;14.20;6.78;;;;;;;9.16;71.70;99873.84;1685728;85;21016;-65
2023/11/13 10:18:49;;;;;;;8.65;5.42;;;;;;;9.21;71.74;99880.07;1744437;82;20995;-66
2023/11/13 10:21:35;;;;;;;9.58;6.03;;;;;;;9.25;71.31;99872.31;1742258;81;21091;-65
2023/11/13 10:24:21;;;;;;;9.10;5.75;;;;;;;9.27;71.17;99882.52;1722332;82;21096;-66
2023/11/13 10:26:52;;;;;;;10.15;6.37;;;;;;;9.27;70.34;99893.45;1739981;82;21007;-66
2023/11/13 10:29:32;;;;;;;9.85;5.70;;;;;;;9.20;70.44;99895.63;1742358;81;21162;-66
2023/11/13 10:32:01;;;;;;;14.30;6.47;;;;;;;9.18;70.55;99891.41;1742388;82;21023;-66
2023/11/13 10:34:43;;;;;;;12.70;6.05;;;;;;;9.13;70.61;99890.64;1742305;82;20999;-67
2023/11/13 10:37:15;;;;;;;8.80;6.30;;;;;;;9.09;70.66;99892.06;1741790;82;21006;-65
2023/11/13 10:39:43;;;;;;;7.20;4.65;;;;;;;9.08;70.92;99894.99;1742355;82;21046;-70
2023/11/13 10:42:31;;;;;;;8.20;5.03;;;;;;;9.08;69.82;99886.27;1721849;82;21050;-65
2023/11/13 10:44:57;;;;;;;9.13;5.15;;;;;;;9.08;69.65;99886.80;1741658;82;21086;-66
2023/11/13 10:47:35;;;;;;;10.23;5.80;;;;;;;9.02;69.50;99884.86;1742356;82;20994;-67
2023/11/13 10:50:15;;;;;;;11.28;6.47;;;;;;;8.98;69.22;99893.98;1722617;82;21102;-66
2023/11/13 10:52:35;;;;;;;9.73;5.80;;;;;;;8.94;69.63;99889.96;1741046;82;21048;-68
2023/11/13 10:55:05;;;;;;;8.53;5.12;;;;;;;8.94;70.38;99879.55;1742047;82;21533;-69
2023/11/13 10:57:34;;;;;;;7.47;4.65;;;;;;;8.97;70.52;99878.63;1742983;81;21445;-66
2023/11/13 11:00:05;;;;;;;7.08;4.72;;;;;;;9.00;69.99;99882.33;1742365;82;21532;-66
2023/11/13 11:02:45;;;;;;;7.22;4.92;;;;;;;9.00;70.32;99889.16;1742312;82;21132;-68
2023/11/13 11:05:24;;;;;;;10.82;5.67;;;;;;;9.02;70.46;99887.08;1757812;80;21415;-66
2023/11/13 11:07:54;;;;;;;10.08;5.25;;;;;;;9.03;70.47;99891.50;1788685;80;21043;-67
2023/11/13 11:10:26;;;;;;;10.63;5.80;;;;;;;9.04;70.75;99897.28;1788458;80;21068;-66
2023/11/13 11:13:08;;;;;;;7.80;5.28;;;;;;;9.05;70.46;99898.12;1723490;83;21063;-65
2023/11/13 11:15:59;;;;;;;8.23;5.40;;;;;;;9.05;70.79;99897.60;1788425;80;21443;-66
2023/11/13 11:19:12;;;;;;;9.63;5.62;;;;;;;9.07;70.55;99903.72;1678232;85;21102;-67
2023/11/13 11:22:06;;;;;;;10.08;5.58;;;;;;;9.05;70.53;99903.59;1731713;82;21587;-65
2023/11/13 11:25:06;;;;;;;10.32;6.15;;;;;;;9.01;70.98;99905.03;1764209;81;21083;-68
2023/11/13 11:27:41;;;;;;;10.50;5.87;;;;;;;9.00;71.51;99911.02;1764043;81;21175;-67
2023/11/13 11:30:24;;;;;;;10.13;6.40;;;;;;;8.96;71.37;99911.10;1763926;81;21082;-66
2023/11/13 11:33:00;;;;;;;8.43;5.72;;;;;;;8.93;71.32;99914.75;1764056;81;21103;-67
2023/11/13 11:35:29;;;;;;;6.45;4.50;;;;;;;8.89;71.62;99910.20;1764233;81;21011;-65
2023/11/13 11:38:28;;;;;;;9.30;5.67;;;;;;;8.86;71.67;99911.97;1738842;81;21483;-65
2023/11/13 11:40:59;;;;;;;11.18;6.80;;;;;;;8.87;71.92;99906.30;1763860;81;21040;-66
2023/11/13 11:43:35;;;;;;;9.60;5.55;;;;;;;8.88;72.45;99907.16;1764382;81;21071;-67
2023/11/13 11:46:04;;;;;;;10.03;6.13;;;;;;;8.90;72.37;99909.16;1764190;81;21503;-66
2023/11/13 11:48:36;;;;;;;10.80;6.10;;;;;;;8.91;72.35;99906.75;1763592;81;22119;-68